Time;durP1;ratioP1;P1;durP2;ratioP2;P2;SDS_P1;SDS_P2;PMS_P1;PMS_P2;Temp;Humidity;BMP_temperature;BMP_pressure;BME280_temperature;BME280_humidity;BME280_pressure;Samples;Min_cycle;Max_cycle;Signal;HPM_P1;HPM_P2
2024/02/26 00:00:32;;;;;;;0.73;0.50;;;6.40;96.70;;;;;;5031414;28;20189;-59
2024/02/26 00:02:57;;;;;;;2.23;0.60;;;6.30;96.70;;;;;;5031381;28;20180;-59
2024/02/26 00:05:23;;;;;;;0.97;0.93;;;6.30;96.70;;;;;;5031436;28;20571;-59
2024/02/26 00:07:49;;;;;;;4.20;1.10;;;6.30;96.80;;;;;;5030879;28;20737;-60
2024/02/26 00:10:15;;;;;;;1.45;1.02;;;6.40;96.90;;;;;;5031296;28;20182;-59
2024/02/26 00:12:41;;;;;;;1.00;0.93;;;6.30;96.20;;;;;;5031149;28;20225;-59
2024/02/26 00:15:08;;;;;;;0.80;0.63;;;6.20;96.20;;;;;;5031582;28;20188;-59
2024/02/26 00:17:34;;;;;;;2.15;0.50;;;6.20;97.10;;;;;;5030726;28;20201;-59
2024/02/26 00:20:00;;;;;;;0.80;0.60;;;6.30;97.40;;;;;;5031230;28;20520;-59
2024/02/26 00:22:26;;;;;;;0.63;0.60;;;6.40;97.80;;;;;;5031219;28;20173;-59
2024/02/26 00:24:52;;;;;;;0.50;0.50;;;6.40;97.70;;;;;;5031165;28;20171;-59
2024/02/26 00:27:17;;;;;;;0.53;0.43;;;6.40;97.90;;;;;;5030628;28;20529;-59
2024/02/26 00:29:43;;;;;;;3.07;0.60;;;6.30;98.30;;;;;;5031200;28;20169;-59
2024/02/26 00:32:09;;;;;;;0.80;0.60;;;6.30;98.60;;;;;;5031108;28;20174;-60
2024/02/26 00:34:34;;;;;;;0.50;0.50;;;6.20;98.70;;;;;;5031513;28;20169;-59
2024/02/26 00:37:01;;;;;;;0.93;0.50;;;6.30;99.10;;;;;;5031013;28;20583;-57
2024/02/26 00:39:26;;;;;;;0.65;0.60;;;6.40;99.30;;;;;;5030558;28;20203;-57
2024/02/26 00:41:52;;;;;;;0.97;0.70;;;6.30;99.10;;;;;;5030932;28;20543;-57
2024/02/26 00:44:17;;;;;;;3.77;1.97;;;6.30;99.20;;;;;;5031011;28;20179;-57
2024/02/26 00:46:43;;;;;;;1.47;1.17;;;6.20;99.40;;;;;;5031038;28;20284;-57
2024/02/26 00:49:09;;;;;;;0.77;0.77;;;6.20;99.60;;;;;;5030705;28;20279;-57
2024/02/26 00:51:34;;;;;;;0.40;0.40;;;6.30;99.50;;;;;;5030965;28;20277;-56
2024/02/26 00:54:00;;;;;;;0.70;0.60;;;6.30;99.50;;;;;;5034406;28;20524;-57
2024/02/26 00:56:25;;;;;;;0.90;0.60;;;6.30;99.80;;;;;;5034362;28;20182;-56
2024/02/26 00:58:51;;;;;;;0.40;0.40;;;6.40;99.80;;;;;;5034316;28;20468;-57
2024/02/26 01:01:17;;;;;;;0.80;0.60;;;6.40;99.80;;;;;;5034436;28;20179;-56
2024/02/26 01:03:43;;;;;;;0.50;0.50;;;6.40;99.70;;;;;;5052724;28;20177;-57
2024/02/26 01:06:09;;;;;;;0.60;0.60;;;6.50;99.90;;;;;;5054276;28;20176;-57
2024/02/26 01:08:35;;;;;;;0.45;0.45;;;6.40;99.80;;;;;;5053923;28;20604;-59
2024/02/26 01:11:01;;;;;;;0.82;0.50;;;6.40;99.90;;;;;;5054090;28;20236;-59
2024/02/26 01:13:27;;;;;;;0.93;0.53;;;6.40;99.90;;;;;;5054099;28;20173;-59
2024/02/26 01:15:52;;;;;;;0.57;0.57;;;6.40;99.90;;;;;;5054052;28;20185;-59
2024/02/26 01:18:18;;;;;;;0.60;0.60;;;6.40;99.90;;;;;;5053900;28;20803;-59
2024/02/26 01:20:43;;;;;;;0.50;0.50;;;6.40;99.90;;;;;;5036351;28;20301;-59
2024/02/26 01:23:09;;;;;;;0.70;0.50;;;6.30;99.90;;;;;;5034038;28;20260;-59
2024/02/26 01:25:35;;;;;;;0.50;0.50;;;6.30;99.90;;;;;;5034599;28;20200;-59
2024/02/26 01:28:00;;;;;;;1.00;0.70;;;6.10;99.90;;;;;;5033522;28;20200;-60
2024/02/26 01:30:26;;;;;;;1.23;0.40;;;6.20;99.90;;;;;;5034017;28;20170;-59
2024/02/26 01:32:51;;;;;;;0.53;0.53;;;6.20;99.90;;;;;;5033927;28;20174;-59
2024/02/26 01:35:17;;;;;;;0.60;0.60;;;6.30;99.90;;;;;;5033885;28;20747;-59
2024/02/26 01:37:42;;;;;;;0.50;0.47;;;6.30;99.90;;;;;;5057224;22;20203;-63
2024/02/26 01:40:09;;;;;;;0.50;0.50;;;6.30;99.90;;;;;;5050207;28;20201;-63
2024/02/26 01:42:37;;;;;;;0.50;0.50;;;6.20;99.90;;;;;;5053529;28;20232;-63
2024/02/26 01:45:05;;;;;;;0.70;0.68;;;6.20;99.90;;;;;;5053705;28;20194;-63
2024/02/26 01:47:30;;;;;;;1.40;0.82;;;6.20;99.90;;;;;;5053310;28;20248;-62
2024/02/26 01:49:57;;;;;;;2.40;0.57;;;6.30;99.90;;;;;;5053578;28;20604;-63
2024/02/26 01:52:23;;;;;;;0.60;0.60;;;6.30;99.90;;;;;;5053511;28;20288;-63
2024/02/26 01:54:50;;;;;;;1.43;0.80;;;6.30;99.90;;;;;;5053477;28;20718;-63
2024/02/26 01:57:16;;;;;;;0.40;0.40;;;6.30;99.90;;;;;;5053186;28;20360;-63
2024/02/26 01:59:42;;;;;;;0.60;0.60;;;6.30;99.90;;;;;;5053538;28;20585;-63
2024/02/26 02:02:11;;;;;;;0.70;0.70;;;6.20;99.90;;;;;;5053447;28;20173;-63
2024/02/26 02:04:38;;;;;;;0.50;0.50;;;6.30;99.90;;;;;;5052673;28;20212;-63
2024/02/26 02:07:05;;;;;;;0.52;0.52;;;6.20;99.90;;;;;;5053080;28;20275;-63
2024/02/26 02:09:31;;;;;;;0.73;0.68;;;6.20;99.90;;;;;;5053108;28;20578;-63
2024/02/26 02:11:58;;;;;;;0.60;0.60;;;6.20;99.90;;;;;;5059981;28;20183;-63
2024/02/26 02:14:25;;;;;;;2.65;0.90;;;6.30;99.90;;;;;;5061808;28;20545;-63
2024/02/26 02:16:50;;;;;;;0.60;0.60;;;6.20;99.90;;;;;;5059406;28;20170;-63
2024/02/26 02:19:16;;;;;;;0.80;0.60;;;6.10;99.90;;;;;;5063348;28;20213;-62
2024/02/26 02:21:42;;;;;;;0.63;0.63;;;6.00;99.90;;;;;;5061941;28;20626;-63
2024/02/26 02:24:07;;;;;;;1.00;1.00;;;6.00;99.90;;;;;;5062609;28;20176;-62
2024/02/26 02:26:33;;;;;;;1.93;0.50;;;6.00;99.90;;;;;;5062903;28;20252;-63
2024/02/26 02:29:00;;;;;;;0.70;0.70;;;6.10;99.90;;;;;;5061069;28;20612;-63
2024/02/26 02:31:26;;;;;;;1.90;1.02;;;6.10;99.90;;;;;;5062770;28;20252;-62
2024/02/26 02:33:52;;;;;;;1.35;0.60;;;6.10;99.90;;;;;;5062613;28;20185;-62
2024/02/26 02:36:18;;;;;;;1.17;0.97;;;6.10;99.90;;;;;;5069656;28;20173;-63
2024/02/26 02:38:51;;;;;;;0.60;0.60;;;6.10;99.90;;;;;;5067292;28;20445;-64
2024/02/26 02:41:16;;;;;;;1.48;0.65;;;6.20;99.90;;;;;;5063223;28;20174;-62
2024/02/26 02:43:42;;;;;;;1.37;1.27;;;6.10;99.90;;;;;;5060710;28;20622;-62
2024/02/26 02:46:08;;;;;;;1.10;1.00;;;6.10;99.90;;;;;;5057770;28;20823;-63
2024/02/26 02:48:33;;;;;;;0.90;0.90;;;6.10;99.90;;;;;;5052210;28;20191;-63
2024/02/26 02:50:59;;;;;;;0.63;0.63;;;5.90;99.90;;;;;;5052382;28;20172;-62
2024/02/26 02:53:24;;;;;;;0.73;0.73;;;5.90;99.90;;;;;;5059230;28;20512;-63
2024/02/26 02:55:50;;;;;;;0.70;0.70;;;5.90;99.90;;;;;;5060926;28;20161;-63
2024/02/26 02:58:16;;;;;;;0.90;0.90;;;5.90;99.90;;;;;;5062116;28;20214;-63
2024/02/26 03:00:41;;;;;;;0.90;0.70;;;5.90;99.90;;;;;;5069537;28;20173;-63
2024/02/26 03:03:07;;;;;;;1.10;0.60;;;5.90;99.90;;;;;;5072204;28;20179;-63
2024/02/26 03:05:32;;;;;;;0.50;0.50;;;5.90;99.90;;;;;;5059072;28;20182;-63
2024/02/26 03:07:58;;;;;;;2.00;1.00;;;5.80;99.90;;;;;;5051946;28;20280;-63
2024/02/26 03:10:24;;;;;;;2.57;0.90;;;5.70;99.90;;;;;;5052085;28;20310;-62
2024/02/26 03:12:50;;;;;;;0.50;0.50;;;5.60;99.90;;;;;;5051991;28;20169;-63
2024/02/26 03:15:15;;;;;;;0.60;0.60;;;5.50;99.90;;;;;;5058537;28;20203;-63
2024/02/26 03:17:41;;;;;;;1.27;0.90;;;5.40;99.90;;;;;;5070958;28;20443;-62
2024/02/26 03:20:09;;;;;;;0.70;0.70;;;5.40;99.90;;;;;;5071779;28;20234;-63
2024/02/26 03:22:35;;;;;;;1.25;1.15;;;5.40;99.90;;;;;;5071819;28;20250;-63
2024/02/26 03:25:01;;;;;;;0.87;0.87;;;5.40;99.90;;;;;;5071787;28;20325;-63
2024/02/26 03:27:26;;;;;;;0.57;0.57;;;5.30;99.90;;;;;;5071524;28;20448;-62
2024/02/26 03:29:52;;;;;;;0.60;0.60;;;5.30;99.90;;;;;;5070099;28;20200;-63
2024/02/26 03:32:18;;;;;;;0.97;0.70;;;5.30;99.90;;;;;;5067770;28;20661;-63
2024/02/26 03:34:44;;;;;;;0.80;0.60;;;5.30;99.90;;;;;;5060334;28;20411;-63
2024/02/26 03:37:10;;;;;;;2.30;0.63;;;5.30;99.90;;;;;;5068705;28;20173;-63
2024/02/26 03:39:36;;;;;;;0.75;0.75;;;5.20;99.90;;;;;;5071398;28;20201;-63
2024/02/26 03:42:02;;;;;;;0.80;0.60;;;5.30;99.90;;;;;;5071494;28;20182;-63
2024/02/26 03:44:28;;;;;;;1.33;0.80;;;5.30;99.90;;;;;;5071663;28;20244;-63
2024/02/26 03:46:54;;;;;;;0.90;0.70;;;5.30;99.90;;;;;;5071457;28;20454;-63
2024/02/26 03:49:19;;;;;;;2.90;0.90;;;5.30;99.90;;;;;;5071312;28;20189;-63
2024/02/26 03:51:45;;;;;;;0.70;0.63;;;5.30;99.90;;;;;;5071518;28;20679;-62
2024/02/26 03:54:10;;;;;;;0.77;0.77;;;5.30;99.90;;;;;;5071353;28;20173;-63
2024/02/26 03:56:36;;;;;;;1.83;0.80;;;5.30;99.90;;;;;;5071381;28;20166;-63
2024/02/26 03:59:02;;;;;;;0.93;0.80;;;5.40;99.90;;;;;;5071197;28;20232;-63
2024/02/26 04:01:28;;;;;;;0.60;0.60;;;5.40;99.90;;;;;;5071548;28;20259;-63
2024/02/26 04:03:54;;;;;;;0.40;0.40;;;5.40;99.90;;;;;;5071394;28;20231;-63
2024/02/26 04:06:20;;;;;;;0.68;0.68;;;5.40;99.90;;;;;;5071178;28;20177;-61
2024/02/26 04:08:47;;;;;;;0.50;0.50;;;5.40;99.90;;;;;;5070830;28;20199;-63
2024/02/26 04:11:13;;;;;;;0.63;0.63;;;5.40;99.90;;;;;;5071308;28;20322;-63
2024/02/26 04:13:38;;;;;;;0.60;0.60;;;5.50;99.90;;;;;;5071345;28;20175;-63
2024/02/26 04:16:05;;;;;;;4.10;1.13;;;5.50;99.90;;;;;;5071309;28;20173;-63
2024/02/26 04:18:31;;;;;;;1.15;0.70;;;5.50;99.90;;;;;;5070957;28;20183;-63
2024/02/26 04:20:57;;;;;;;0.75;0.60;;;5.60;99.90;;;;;;5071137;28;20260;-62
2024/02/26 04:23:23;;;;;;;2.30;0.70;;;5.60;99.90;;;;;;5071351;28;20254;-63
2024/02/26 04:25:49;;;;;;;0.60;0.60;;;5.60;99.90;;;;;;5071098;28;20165;-63
2024/02/26 04:28:14;;;;;;;1.10;0.73;;;5.70;99.90;;;;;;5073125;28;20829;-63
2024/02/26 04:30:41;;;;;;;1.00;1.00;;;5.70;99.90;;;;;;5075116;28;20541;-63
2024/02/26 04:33:06;;;;;;;0.60;0.60;;;5.70;99.90;;;;;;5075070;28;20665;-63
2024/02/26 04:35:32;;;;;;;0.60;0.60;;;5.80;99.90;;;;;;5075033;28;20235;-63
2024/02/26 04:37:57;;;;;;;0.60;0.60;;;5.80;99.90;;;;;;5074345;28;20286;-63
2024/02/26 04:40:23;;;;;;;0.77;0.77;;;5.80;99.90;;;;;;5074983;28;20183;-63
2024/02/26 04:42:49;;;;;;;0.83;0.83;;;5.90;99.90;;;;;;5074835;28;20233;-62
2024/02/26 04:45:15;;;;;;;2.27;0.77;;;5.80;99.90;;;;;;5074761;28;20924;-62
2024/02/26 04:47:41;;;;;;;0.40;0.40;;;5.90;99.90;;;;;;5074393;28;20911;-63
2024/02/26 04:50:07;;;;;;;0.60;0.60;;;5.90;99.90;;;;;;5074634;28;20709;-63
2024/02/26 04:52:32;;;;;;;0.60;0.60;;;5.80;99.90;;;;;;5074859;28;20200;-63
2024/02/26 04:54:59;;;;;;;0.70;0.70;;;5.90;99.90;;;;;;5074649;28;20207;-63
2024/02/26 04:57:26;;;;;;;0.60;0.60;;;5.80;99.90;;;;;;5074264;28;20187;-63
2024/02/26 04:59:51;;;;;;;0.50;0.50;;;5.80;99.90;;;;;;5074444;28;20187;-63
2024/02/26 05:02:17;;;;;;;0.97;0.83;;;5.80;99.90;;;;;;5074496;28;20168;-63
2024/02/26 05:04:43;;;;;;;1.13;0.93;;;5.90;99.90;;;;;;5074370;28;20920;-63
2024/02/26 05:07:09;;;;;;;0.70;0.70;;;5.90;99.90;;;;;;5073881;28;20288;-63
2024/02/26 05:09:35;;;;;;;1.60;0.50;;;5.90;99.90;;;;;;5074298;28;20276;-62
2024/02/26 05:12:01;;;;;;;0.50;0.50;;;5.90;99.90;;;;;;5070857;28;20240;-63
2024/02/26 05:14:26;;;;;;;0.50;0.50;;;5.90;99.90;;;;;;5054434;28;20412;-63
2024/02/26 05:16:52;;;;;;;1.00;1.00;;;5.90;99.90;;;;;;5054303;28;20431;-62
2024/02/26 05:19:17;;;;;;;0.50;0.50;;;5.80;99.90;;;;;;5053817;28;20198;-63
2024/02/26 05:21:44;;;;;;;0.60;0.60;;;5.90;99.90;;;;;;5054161;28;20176;-63
2024/02/26 05:24:10;;;;;;;0.55;0.55;;;5.80;99.90;;;;;;5054304;28;20530;-63
2024/02/26 05:26:35;;;;;;;0.47;0.47;;;5.80;99.90;;;;;;5053970;28;20206;-63
2024/02/26 05:29:01;;;;;;;0.50;0.50;;;5.80;99.90;;;;;;5053713;28;20194;-63
2024/02/26 05:31:28;;;;;;;0.90;0.67;;;5.80;99.90;;;;;;5054044;28;20166;-63
2024/02/26 05:33:54;;;;;;;1.38;0.73;;;5.80;99.90;;;;;;5053868;28;20187;-63
2024/02/26 05:36:23;;;;;;;0.67;0.67;;;5.80;99.90;;;;;;5053908;28;20509;-63
2024/02/26 05:38:49;;;;;;;0.88;0.88;;;5.90;99.90;;;;;;5034623;28;20445;-63
2024/02/26 05:41:16;;;;;;;0.50;0.50;;;5.80;99.90;;;;;;5053667;28;20175;-63
2024/02/26 05:43:42;;;;;;;0.50;0.50;;;5.80;99.90;;;;;;5053787;28;20173;-63
2024/02/26 05:46:08;;;;;;;1.00;1.00;;;5.80;99.90;;;;;;5053631;28;20182;-63
2024/02/26 05:48:34;;;;;;;0.87;0.87;;;5.70;99.90;;;;;;5053196;28;20628;-63
2024/02/26 05:50:59;;;;;;;0.50;0.50;;;5.70;99.90;;;;;;5053532;28;20175;-63
2024/02/26 05:53:25;;;;;;;0.90;0.90;;;5.70;99.90;;;;;;5053487;28;20409;-62
2024/02/26 05:55:51;;;;;;;0.83;0.83;;;5.70;99.90;;;;;;5053515;28;20256;-63
2024/02/26 05:58:16;;;;;;;1.17;0.60;;;5.70;99.90;;;;;;5053161;28;20742;-63
2024/02/26 06:00:42;;;;;;;0.57;0.57;;;5.80;99.90;;;;;;5053441;28;20707;-63
2024/02/26 06:03:07;;;;;;;1.30;1.30;;;5.80;99.90;;;;;;5053289;28;20568;-62
2024/02/26 06:05:33;;;;;;;1.37;0.80;;;5.80;99.90;;;;;;5053206;28;20194;-63
2024/02/26 06:07:59;;;;;;;0.70;0.70;;;5.80;99.90;;;;;;5052619;28;20207;-63
2024/02/26 06:10:24;;;;;;;0.67;0.67;;;5.90;99.90;;;;;;5053357;28;20178;-63
2024/02/26 06:12:50;;;;;;;1.70;0.70;;;5.90;99.90;;;;;;5053173;28;20167;-63
2024/02/26 06:15:16;;;;;;;0.93;0.60;;;5.90;99.90;;;;;;5053112;28;20170;-62
2024/02/26 06:17:41;;;;;;;0.70;0.70;;;6.00;99.90;;;;;;5052687;28;20176;-63
2024/02/26 06:20:11;;;;;;;0.70;0.60;;;6.00;99.90;;;;;;5053082;28;20174;-63
2024/02/26 06:22:37;;;;;;;0.50;0.50;;;6.00;99.90;;;;;;5053161;28;20171;-63
2024/02/26 06:25:03;;;;;;;1.43;0.87;;;6.10;99.90;;;;;;5053023;28;20709;-62
2024/02/26 06:27:28;;;;;;;1.13;0.53;;;6.00;99.90;;;;;;5052560;28;20244;-62
2024/02/26 06:29:54;;;;;;;0.50;0.50;;;6.10;99.90;;;;;;5052797;28;20632;-63
2024/02/26 06:32:20;;;;;;;0.60;0.60;;;6.10;99.90;;;;;;5052747;28;20168;-62
2024/02/26 06:34:45;;;;;;;1.87;1.30;;;6.10;99.90;;;;;;5052774;28;20167;-63
2024/02/26 06:37:11;;;;;;;0.83;0.83;;;6.10;99.90;;;;;;5052627;28;20174;-63
2024/02/26 06:39:38;;;;;;;0.80;0.70;;;6.00;99.90;;;;;;5052576;28;20210;-63
2024/02/26 06:42:04;;;;;;;0.63;0.63;;;6.20;99.90;;;;;;5052658;28;20253;-63
2024/02/26 06:44:31;;;;;;;0.77;0.60;;;6.20;99.90;;;;;;5052602;28;20177;-63
2024/02/26 06:47:01;;;;;;;0.60;0.60;;;6.10;99.90;;;;;;5052316;28;20202;-62
2024/02/26 06:49:27;;;;;;;0.77;0.65;;;6.20;99.90;;;;;;5052156;28;20193;-63
2024/02/26 06:51:53;;;;;;;2.45;0.60;;;6.30;99.90;;;;;;5052228;28;20176;-63
2024/02/26 06:54:18;;;;;;;0.60;0.50;;;6.40;99.90;;;;;;5052334;28;20276;-63
2024/02/26 06:56:44;;;;;;;0.40;0.40;;;6.50;99.90;;;;;;5052273;28;20527;-63
2024/02/26 06:59:10;;;;;;;0.87;0.83;;;6.50;99.90;;;;;;5052054;28;20275;-63
2024/02/26 07:01:35;;;;;;;3.70;0.80;;;6.50;99.90;;;;;;5052191;28;20220;-63
2024/02/26 07:04:01;;;;;;;1.43;0.60;;;6.50;99.90;;;;;;5051785;28;20176;-62
2024/02/26 07:06:27;;;;;;;0.70;0.70;;;6.40;99.90;;;;;;5052098;28;20693;-63
2024/02/26 07:08:53;;;;;;;0.50;0.50;;;6.40;99.90;;;;;;5051848;28;20189;-63
2024/02/26 07:11:19;;;;;;;0.50;0.50;;;6.50;99.90;;;;;;5052168;28;20419;-63
2024/02/26 07:13:46;;;;;;;0.45;0.45;;;6.40;99.90;;;;;;5052479;28;20548;-62
2024/02/26 07:16:11;;;;;;;0.50;0.50;;;6.30;99.90;;;;;;5052477;28;20168;-63
2024/02/26 07:18:39;;;;;;;0.60;0.60;;;6.30;99.90;;;;;;5051649;28;20238;-63
2024/02/26 07:21:06;;;;;;;0.50;0.50;;;6.40;99.90;;;;;;5049327;28;20174;-63
2024/02/26 07:23:32;;;;;;;0.50;0.50;;;6.50;99.90;;;;;;5051896;28;20175;-63
2024/02/26 07:25:58;;;;;;;2.17;0.83;;;6.60;99.90;;;;;;5051860;28;20447;-63
2024/02/26 07:28:24;;;;;;;2.13;0.68;;;6.70;99.90;;;;;;5051441;28;20742;-63
2024/02/26 07:30:50;;;;;;;0.80;0.80;;;6.70;99.90;;;;;;5051705;28;20315;-63
2024/02/26 07:33:16;;;;;;;3.13;0.73;;;6.80;99.90;;;;;;5051705;28;20912;-63
2024/02/26 07:35:41;;;;;;;1.63;0.70;;;6.90;99.90;;;;;;5051729;28;20635;-63
2024/02/26 07:38:07;;;;;;;0.67;0.60;;;6.90;99.90;;;;;;5051335;28;20213;-63
2024/02/26 07:40:33;;;;;;;0.60;0.60;;;6.90;99.90;;;;;;5090370;22;20223;-57
2024/02/26 07:42:58;;;;;;;0.83;0.70;;;7.10;99.90;;;;;;5071301;28;20173;-57
2024/02/26 07:45:24;;;;;;;0.50;0.50;;;7.20;99.90;;;;;;5071469;28;20176;-57
2024/02/26 07:47:51;;;;;;;0.47;0.40;;;7.30;99.90;;;;;;5070937;28;20209;-57
2024/02/26 07:50:17;;;;;;;0.60;0.60;;;7.40;99.90;;;;;;5071379;28;20615;-57
2024/02/26 07:52:43;;;;;;;1.33;0.60;;;7.40;99.90;;;;;;5071541;28;20556;-57
2024/02/26 07:55:09;;;;;;;0.50;0.50;;;7.40;99.90;;;;;;5071347;28;20251;-56
2024/02/26 07:57:35;;;;;;;0.70;0.70;;;7.50;99.90;;;;;;5071055;28;20261;-57
2024/02/26 08:00:01;;;;;;;1.60;1.50;;;7.60;99.90;;;;;;5071243;28;20193;-57
2024/02/26 08:02:27;;;;;;;1.27;1.15;;;7.70;99.90;;;;;;5070593;28;20208;-57
2024/02/26 08:04:53;;;;;;;0.90;0.50;;;7.70;99.90;;;;;;5071348;28;20268;-57
2024/02/26 08:07:20;;;;;;;1.30;1.20;;;7.90;99.90;;;;;;5070906;28;20663;-57
2024/02/26 08:09:46;;;;;;;1.45;1.35;;;8.00;99.90;;;;;;5070739;28;20263;-57
2024/02/26 08:12:11;;;;;;;1.27;1.10;;;7.90;99.90;;;;;;5070996;28;20651;-56
2024/02/26 08:14:37;;;;;;;1.20;1.10;;;8.00;99.90;;;;;;5071203;28;20404;-56
2024/02/26 08:17:03;;;;;;;2.50;1.27;;;8.00;99.90;;;;;;5071231;28;20662;-56
2024/02/26 08:19:28;;;;;;;1.40;1.30;;;8.10;99.90;;;;;;5070818;28;20196;-57
2024/02/26 08:21:54;;;;;;;1.83;1.50;;;8.30;99.90;;;;;;5071163;28;20696;-57
2024/02/26 08:24:20;;;;;;;1.33;1.20;;;9.30;99.90;;;;;;5071067;28;20186;-57
2024/02/26 08:26:46;;;;;;;0.90;0.90;;;10.90;99.90;;;;;;5070818;28;20253;-57
2024/02/26 08:29:11;;;;;;;1.47;1.37;;;11.90;98.00;;;;;;5070711;28;20590;-57
2024/02/26 08:31:37;;;;;;;0.90;0.90;;;12.40;95.60;;;;;;5070895;28;20182;-57
2024/02/26 08:34:04;;;;;;;1.00;1.00;;;12.40;94.40;;;;;;5071150;28;20201;-58
2024/02/26 08:36:33;;;;;;;1.87;1.40;;;12.20;93.80;;;;;;5070973;28;20201;-57
2024/02/26 08:38:58;;;;;;;3.73;2.10;;;11.90;94.20;;;;;;5070568;28;20515;-57
2024/02/26 08:41:24;;;;;;;1.73;1.13;;;11.60;94.70;;;;;;5070883;28;20491;-58
2024/02/26 08:43:49;;;;;;;1.00;1.00;;;11.50;94.80;;;;;;5070849;28;20168;-57
2024/02/26 08:46:15;;;;;;;1.27;1.17;;;11.40;94.70;;;;;;5070781;28;20170;-58
2024/02/26 08:48:41;;;;;;;1.67;1.57;;;11.40;95.00;;;;;;5070539;28;20177;-58
2024/02/26 08:51:07;;;;;;;1.50;1.40;;;11.30;95.20;;;;;;5070913;28;20315;-58
2024/02/26 08:53:34;;;;;;;2.20;1.03;;;11.30;95.70;;;;;;5070841;28;20169;-58
2024/02/26 08:56:00;;;;;;;0.97;0.97;;;11.50;96.10;;;;;;5070577;28;20404;-57
2024/02/26 08:58:27;;;;;;;0.60;0.60;;;11.60;95.50;;;;;;5070630;28;20419;-58
2024/02/26 09:00:53;;;;;;;1.63;1.47;;;11.70;95.50;;;;;;5070835;28;20178;-59
2024/02/26 09:03:18;;;;;;;1.63;1.20;;;11.50;94.90;;;;;;5070671;28;20423;-58
2024/02/26 09:05:44;;;;;;;1.70;1.17;;;11.50;95.30;;;;;;5070751;28;20688;-58
2024/02/26 09:08:10;;;;;;;1.00;0.70;;;11.60;95.60;;;;;;5070359;28;20201;-58
2024/02/26 09:10:35;;;;;;;0.50;0.50;;;11.80;95.70;;;;;;5070571;28;20198;-58
2024/02/26 09:13:02;;;;;;;0.50;0.50;;;12.10;95.80;;;;;;5070611;28;20165;-58
2024/02/26 09:15:28;;;;;;;1.07;0.97;;;12.50;95.20;;;;;;5072801;28;20842;-58
2024/02/26 09:17:53;;;;;;;0.80;0.80;;;13.00;94.50;;;;;;5074082;28;20205;-58
2024/02/26 09:20:23;;;;;;;0.80;0.80;;;13.30;92.90;;;;;;5074004;28;20857;-58
2024/02/26 09:22:49;;;;;;;0.67;0.67;;;13.40;92.60;;;;;;5073418;28;20188;-58
2024/02/26 09:25:15;;;;;;;0.77;0.77;;;13.60;92.60;;;;;;5073897;28;20439;-58
2024/02/26 09:27:43;;;;;;;0.70;0.60;;;13.50;92.40;;;;;;5073529;28;20455;-58
2024/02/26 09:30:10;;;;;;;0.50;0.50;;;13.40;92.70;;;;;;5073233;28;20891;-58
2024/02/26 09:32:36;;;;;;;0.50;0.50;;;13.10;92.80;;;;;;5073619;28;20496;-58
2024/02/26 09:35:02;;;;;;;0.80;0.57;;;12.80;93.00;;;;;;5055944;28;20487;-58
2024/02/26 09:37:27;;;;;;;0.70;0.60;;;12.50;93.60;;;;;;5073470;28;20505;-59
2024/02/26 09:39:53;;;;;;;0.50;0.50;;;12.30;93.60;;;;;;5073511;28;20530;-58
2024/02/26 09:42:19;;;;;;;0.43;0.43;;;12.10;93.70;;;;;;5073675;28;20628;-59
2024/02/26 09:44:45;;;;;;;1.00;0.60;;;11.80;94.10;;;;;;5073136;28;20718;-58
2024/02/26 09:47:15;;;;;;;0.70;0.70;;;11.60;94.50;;;;;;5072570;28;20530;-58
2024/02/26 09:49:42;;;;;;;0.60;0.60;;;11.40;94.60;;;;;;5073567;28;20859;-58
2024/02/26 09:52:09;;;;;;;0.50;0.50;;;11.20;95.20;;;;;;5073387;28;20407;-58
2024/02/26 09:54:35;;;;;;;1.00;0.63;;;11.00;95.90;;;;;;5073510;28;20826;-58
2024/02/26 09:57:04;;;;;;;0.50;0.40;;;11.00;96.70;;;;;;5073331;28;20420;-58
2024/02/26 09:59:34;;;;;;;0.70;0.60;;;11.10;96.70;;;;;;5073376;28;20549;-58
2024/02/26 10:02:01;;;;;;;0.40;0.40;;;11.20;96.10;;;;;;5073441;28;20464;-58
2024/02/26 10:04:27;;;;;;;0.60;0.60;;;11.30;96.40;;;;;;5073265;28;20985;-58
2024/02/26 10:06:54;;;;;;;0.50;0.50;;;11.40;96.50;;;;;;5073101;28;20463;-58
2024/02/26 10:09:20;;;;;;;0.40;0.40;;;11.40;96.00;;;;;;5073135;28;20861;-58
2024/02/26 10:11:48;;;;;;;0.60;0.60;;;11.50;95.60;;;;;;5073180;28;20415;-57
2024/02/26 10:14:15;;;;;;;0.70;0.70;;;11.60;95.80;;;;;;5073047;28;20403;-58
2024/02/26 10:16:42;;;;;;;0.40;0.40;;;11.90;95.60;;;;;;5073013;28;20507;-57
2024/02/26 10:19:07;;;;;;;0.70;0.50;;;12.20;95.20;;;;;;5072905;28;20952;-58
2024/02/26 10:21:33;;;;;;;0.83;0.80;;;12.40;95.30;;;;;;5072993;28;20436;-58
2024/02/26 10:23:59;;;;;;;0.47;0.47;;;12.30;94.50;;;;;;5072917;28;20175;-58
2024/02/26 10:26:24;;;;;;;1.43;1.33;;;12.40;94.90;;;;;;5072364;28;20249;-58
2024/02/26 10:28:50;;;;;;;0.40;0.40;;;12.70;94.80;;;;;;5071799;28;20256;-58
2024/02/26 10:31:16;;;;;;;0.50;0.50;;;13.00;94.80;;;;;;5072733;28;20595;-59
2024/02/26 10:33:43;;;;;;;0.70;0.70;;;13.50;94.90;;;;;;5072412;28;20407;-58
2024/02/26 10:36:09;;;;;;;1.60;0.80;;;14.10;91.60;;;;;;5072554;28;20243;-58
2024/02/26 10:38:37;;;;;;;0.50;0.50;;;14.60;89.70;;;;;;5072298;28;20415;-58
2024/02/26 10:41:08;;;;;;;0.80;0.50;;;14.90;89.60;;;;;;5072688;28;20412;-58
2024/02/26 10:43:33;;;;;;;0.40;0.40;;;14.90;84.20;;;;;;5072499;28;20420;-58
2024/02/26 10:45:59;;;;;;;0.57;0.47;;;14.50;87.20;;;;;;5072454;28;20415;-58
2024/02/26 10:48:25;;;;;;;0.57;0.57;;;14.20;90.80;;;;;;5071976;28;20191;-58
2024/02/26 10:50:52;;;;;;;0.50;0.50;;;14.00;90.90;;;;;;5072639;28;20600;-58
2024/02/26 10:53:21;;;;;;;0.83;0.60;;;13.70;93.00;;;;;;5072260;28;20195;-58
2024/02/26 10:55:52;;;;;;;0.40;0.40;;;13.50;93.70;;;;;;5072285;28;20404;-58
2024/02/26 10:58:18;;;;;;;0.40;0.40;;;12.90;94.00;;;;;;5072019;28;20414;-58
2024/02/26 11:00:47;;;;;;;0.70;0.60;;;12.90;93.90;;;;;;5072058;28;20424;-58
2024/02/26 11:03:17;;;;;;;1.03;0.60;;;13.00;93.40;;;;;;5072184;28;20858;-58
2024/02/26 11:05:44;;;;;;;0.50;0.43;;;13.30;93.90;;;;;;5072110;28;20400;-58
2024/02/26 11:08:11;;;;;;;0.40;0.40;;;13.20;95.00;;;;;;5071708;28;20513;-58
2024/02/26 11:10:38;;;;;;;0.60;0.60;;;13.20;94.80;;;;;;5071938;28;20424;-58
2024/02/26 11:13:06;;;;;;;0.60;0.50;;;13.10;94.90;;;;;;5071845;28;20418;-58
2024/02/26 11:15:33;;;;;;;0.60;0.60;;;13.10;94.00;;;;;;5071779;28;20432;-58
2024/02/26 11:18:01;;;;;;;0.60;0.60;;;13.00;95.10;;;;;;5071556;28;20408;-58
2024/02/26 11:20:29;;;;;;;0.60;0.60;;;12.90;94.60;;;;;;5071761;28;20435;-58
2024/02/26 11:22:55;;;;;;;0.60;0.50;;;12.80;93.10;;;;;;5071976;28;20504;-59
2024/02/26 11:25:21;;;;;;;2.57;0.97;;;13.10;92.90;;;;;;5071841;28;20605;-58
2024/02/26 11:27:54;;;;;;;1.60;0.50;;;13.40;92.20;;;;;;5071531;28;20758;-58
2024/02/26 11:30:22;;;;;;;0.63;0.63;;;13.90;91.40;;;;;;5071990;28;20976;-58
2024/02/26 11:32:48;;;;;;;0.63;0.60;;;14.30;91.00;;;;;;5071677;28;20402;-58
2024/02/26 11:35:16;;;;;;;0.53;0.50;;;14.60;87.50;;;;;;5071664;28;20418;-59
2024/02/26 11:37:55;;;;;;;0.50;0.50;;;14.70;83.80;;;;;;5070515;28;20418;-58
2024/02/26 11:40:23;;;;;;;1.90;0.90;;;14.50;82.50;;;;;;5071363;28;20462;-58
2024/02/26 11:42:51;;;;;;;0.90;0.77;;;14.30;84.60;;;;;;5071445;28;20499;-58
2024/02/26 11:45:38;;;;;;;0.53;0.50;;;14.20;79.80;;;;;;5071677;28;20423;-59
2024/02/26 11:48:10;;;;;;;0.60;0.60;;;13.90;75.20;;;;;;5071163;28;20808;-58
2024/02/26 11:50:39;;;;;;;0.90;0.60;;;13.90;76.20;;;;;;5071544;28;20570;-58
2024/02/26 11:53:25;;;;;;;1.00;0.70;;;13.50;75.90;;;;;;5071336;28;20749;-58
2024/02/26 11:56:26;;;;;;;0.40;0.40;;;13.30;74.90;;;;;;5071294;28;20406;-58
2024/02/26 11:59:12;;;;;;;0.87;0.60;;;13.20;72.90;;;;;;5050655;28;20506;-58
2024/02/26 12:01:42;;;;;;;0.73;0.60;;;12.80;75.20;;;;;;5033472;28;20444;-58
2024/02/26 12:04:22;;;;;;;0.63;0.63;;;12.70;85.10;;;;;;5051262;28;20408;-58
2024/02/26 12:07:00;;;;;;;0.60;0.60;;;12.70;84.80;;;;;;5051281;28;20523;-58
2024/02/26 12:09:39;;;;;;;0.50;0.50;;;12.60;84.60;;;;;;5050675;28;20426;-58
2024/02/26 12:12:06;;;;;;;0.70;0.50;;;12.80;83.00;;;;;;5051169;28;20401;-58
2024/02/26 12:14:50;;;;;;;0.43;0.43;;;13.10;77.60;;;;;;5051391;28;20421;-58
2024/02/26 12:17:20;;;;;;;0.50;0.50;;;13.20;78.00;;;;;;5050986;28;20396;-58
2024/02/26 12:19:46;;;;;;;0.70;0.50;;;12.50;80.00;;;;;;5051214;28;20421;-59
2024/02/26 12:22:15;;;;;;;0.53;0.53;;;12.70;83.90;;;;;;5050596;28;21024;-58
2024/02/26 12:24:41;;;;;;;0.50;0.50;;;12.80;91.30;;;;;;5051319;28;20459;-57
2024/02/26 12:27:07;;;;;;;0.67;0.60;;;12.80;85.10;;;;;;5050794;28;20471;-58
2024/02/26 12:29:32;;;;;;;0.70;0.60;;;12.90;83.70;;;;;;5050809;28;20433;-57
2024/02/26 12:31:58;;;;;;;0.60;0.60;;;12.90;83.80;;;;;;5051066;28;20571;-58
2024/02/26 12:34:24;;;;;;;0.70;0.70;;;13.10;81.10;;;;;;5051099;28;20201;-58
2024/02/26 12:36:51;;;;;;;0.53;0.53;;;13.00;80.80;;;;;;5050870;28;20178;-58
2024/02/26 12:39:16;;;;;;;0.70;0.70;;;13.00;77.90;;;;;;5050498;28;20471;-57
2024/02/26 12:41:49;;;;;;;0.50;0.50;;;13.00;80.70;;;;;;5050869;28;20474;-58
2024/02/26 12:44:17;;;;;;;0.70;0.50;;;13.30;80.70;;;;;;5050911;28;20189;-58
2024/02/26 12:46:43;;;;;;;0.50;0.40;;;13.60;77.70;;;;;;5050846;28;20823;-58
2024/02/26 12:49:15;;;;;;;0.73;0.70;;;13.80;77.20;;;;;;5052509;28;20425;-58